Time;durP1;ratioP1;P1;durP2;ratioP2;P2;SDS_P1;SDS_P2;PMS_P1;PMS_P2;Temp;Humidity;BMP_temperature;BMP_pressure;BME280_temperature;BME280_humidity;BME280_pressure;Samples;Min_cycle;Max_cycle;Signal;HPM_P1;HPM_P2
2023/03/28 00:00:49;;;;;;;22.77;7.63;;;;;;;-0.20;100.00;160522.91;5071518;28;20036;-64
2023/03/28 00:03:21;;;;;;;13.27;5.05;;;;;;;-0.26;100.00;160505.53;5072178;28;20024;-64
2023/03/28 00:05:54;;;;;;;12.02;4.90;;;;;;;-0.28;100.00;160500.16;5070972;28;20131;-64
2023/03/28 00:08:20;;;;;;;15.38;5.13;;;;;;;-0.29;100.00;160497.47;5072983;28;20104;-65
2023/03/28 00:10:46;;;;;;;16.48;4.75;;;;;;;-0.27;100.00;160502.84;5071544;28;20133;-65
2023/03/28 00:13:12;;;;;;;10.48;6.20;;;;;;;-0.32;100.00;160492.09;5072635;28;20028;-65
2023/03/28 00:15:39;;;;;;;10.75;3.97;;;;;;;-0.30;100.00;160496.16;5070088;28;20392;-64
2023/03/28 00:18:05;;;;;;;10.23;4.35;;;;;;;-0.30;100.00;160496.16;5072675;28;20066;-64
2023/03/28 00:20:31;;;;;;;16.65;5.80;;;;;;;-0.32;100.00;160492.09;5070745;28;20080;-65
2023/03/28 00:22:57;;;;;;;12.02;5.93;;;;;;;-0.35;100.00;160484.09;5072507;28;20278;-64
2023/03/28 00:25:22;;;;;;;10.55;4.72;;;;;;;-0.39;100.00;160473.34;5071403;28;20045;-63
2023/03/28 00:27:48;;;;;;;18.55;5.32;;;;;;;-0.35;100.00;160484.09;5072068;28;20021;-63
2023/03/28 00:30:13;;;;;;;19.10;4.43;;;;;;;-0.40;100.00;160469.34;5070046;28;20051;-62
2023/03/28 00:32:39;;;;;;;11.30;5.20;;;;;;;-0.38;100.00;160474.72;5072751;28;20025;-62
2023/03/28 00:35:05;;;;;;;8.63;4.68;;;;;;;-0.36;100.00;160481.41;5070472;28;20037;-62
2023/03/28 00:37:30;;;;;;;16.20;4.65;;;;;;;-0.52;100.00;160438.53;5072496;28;20499;-62
2023/03/28 00:39:56;;;;;;;11.80;5.07;;;;;;;-0.35;100.00;160484.09;5071001;28;20403;-62
2023/03/28 00:42:23;;;;;;;14.15;5.47;;;;;;;-0.42;100.00;160465.34;5072219;28;20063;-62
2023/03/28 00:44:50;;;;;;;13.52;5.55;;;;;;;-0.44;100.00;160459.97;5070827;28;20048;-62
2023/03/28 00:47:24;;;;;;;9.05;5.05;;;;;;;-0.45;100.00;160457.28;5072211;28;20387;-63
2023/03/28 00:49:54;;;;;;;11.15;4.07;;;;;;;-0.56;100.00;160427.81;5070261;28;20032;-63
2023/03/28 00:52:22;;;;;;;45.10;6.35;;;;;;;-0.42;100.00;160465.34;5072078;28;20467;-64
2023/03/28 00:54:48;;;;;;;14.57;4.97;;;;;;;-0.47;100.00;160451.91;5069242;28;20119;-64
2023/03/28 00:57:15;;;;;;;26.10;5.75;;;;;;;-0.45;100.00;160457.28;5071883;28;20024;-64
2023/03/28 00:59:41;;;;;;;19.83;6.35;;;;;;;-0.50;100.00;160443.91;5070557;28;20448;-63
2023/03/28 01:02:06;;;;;;;7.90;4.40;;;;;;;-0.76;100.00;160376.91;5071842;28;20146;-63
2023/03/28 01:04:58;;;;;;;12.90;5.15;;;;;;;-0.64;100.00;160407.72;5070269;28;20040;-63
2023/03/28 01:07:27;;;;;;;22.10;6.68;;;;;;;-0.70;100.00;160392.97;5065870;28;20036;-63
2023/03/28 01:09:52;;;;;;;7.78;3.75;;;;;;;-0.74;100.00;160382.28;5070361;28;20690;-63
2023/03/28 01:12:19;;;;;;;15.30;4.93;;;;;;;-0.79;100.00;160368.88;5071526;28;20031;-63
2023/03/28 01:14:46;;;;;;;8.70;5.63;;;;;;;-0.83;100.00;160358.16;5069713;28;20040;-63
2023/03/28 01:17:12;;;;;;;14.35;6.47;;;;;;;-0.90;100.00;160339.41;5071738;28;20024;-64
2023/03/28 01:19:45;;;;;;;17.58;5.82;;;;;;;-0.98;100.00;160320.66;5069596;28;20523;-64
2023/03/28 01:22:50;;;;;;;13.80;6.63;;;;;;;-1.02;100.00;160308.59;5071759;28;20025;-64
2023/03/28 01:26:09;;;;;;;10.25;4.75;;;;;;;-1.12;100.00;160283.16;5069885;28;20125;-63
2023/03/28 01:29:02;;;;;;;10.52;4.55;;;;;;;-1.18;100.00;160267.09;5062861;28;20372;-63
2023/03/28 01:32:00;;;;;;;11.88;4.95;;;;;;;-1.23;100.00;160253.72;5070077;28;20056;-64
2023/03/28 01:34:54;;;;;;;13.37;6.00;;;;;;;-1.28;100.00;160243.00;5054529;28;20479;-63
2023/03/28 01:37:33;;;;;;;14.38;6.13;;;;;;;-1.25;100.00;160248.38;5071565;28;20447;-63
2023/03/28 01:40:07;;;;;;;8.85;5.70;;;;;;;-1.34;100.00;160226.94;5069716;28;20123;-64
2023/03/28 01:42:47;;;;;;;14.95;6.43;;;;;;;-1.35;100.00;160224.25;5070989;28;20032;-63
2023/03/28 01:45:40;;;;;;;10.57;4.93;;;;;;;-1.40;100.00;160210.88;5069869;28;20071;-64
2023/03/28 01:48:20;;;;;;;12.77;5.32;;;;;;;-1.45;100.00;160197.47;5070870;28;20028;-64
2023/03/28 01:51:23;;;;;;;8.38;4.78;;;;;;;-1.46;100.00;160194.81;5069123;28;20507;-61
2023/03/28 01:54:25;;;;;;;21.98;6.55;;;;;;;-1.45;100.00;160198.81;5070993;28;20070;-63
2023/03/28 01:56:58;;;;;;;12.20;5.47;;;;;;;-1.46;100.00;160194.81;5069196;28;20040;-63
2023/03/28 01:59:32;;;;;;;9.57;4.97;;;;;;;-1.48;100.00;160189.47;5069536;28;20032;-63
2023/03/28 02:02:04;;;;;;;19.17;5.10;;;;;;;-1.52;100.00;160180.09;5070903;28;20106;-63
2023/03/28 02:04:32;;;;;;;16.20;5.78;;;;;;;-1.55;100.00;160170.72;5069024;28;20036;-63
2023/03/28 02:06:57;;;;;;;17.57;7.37;;;;;;;-1.54;100.00;160173.41;5070508;28;20029;-63
2023/03/28 02:09:25;;;;;;;13.75;6.22;;;;;;;-1.50;100.00;160184.09;5069608;28;20028;-63
2023/03/28 02:11:57;;;;;;;21.90;8.70;;;;;;;-1.42;100.00;160205.50;5070309;28;20091;-63
2023/03/28 02:14:29;;;;;;;14.20;6.13;;;;;;;-1.37;100.00;160217.56;5069408;28;20500;-63
2023/03/28 02:17:03;;;;;;;10.38;5.18;;;;;;;-1.19;100.00;160264.41;5070140;28;20116;-63
2023/03/28 02:19:30;;;;;;;16.23;5.55;;;;;;;-1.16;100.00;160273.78;5068877;28;20045;-63
2023/03/28 02:22:16;;;;;;;12.80;6.20;;;;;;;-0.96;100.00;160326.03;5070590;28;20476;-63
2023/03/28 02:24:42;;;;;;;29.50;7.05;;;;;;;-0.85;100.00;160352.78;5069277;28;20056;-64
2023/03/28 02:27:07;;;;;;;20.08;8.60;;;;;;;-0.77;100.00;160372.88;5069288;28;20070;-63
2023/03/28 02:29:36;;;;;;;10.88;4.93;;;;;;;-0.78;100.00;160371.53;5069503;28;20067;-63
2023/03/28 02:32:02;;;;;;;19.52;8.88;;;;;;;-0.66;100.00;160402.34;5070304;28;20020;-63
2023/03/28 02:34:27;;;;;;;11.35;5.43;;;;;;;-0.80;100.00;160366.22;5069044;28;20533;-63
2023/03/28 02:36:57;;;;;;;12.00;5.28;;;;;;;-0.69;100.00;160395.66;5070558;28;20031;-63
2023/03/28 02:39:32;;;;;;;17.77;6.00;;;;;;;-0.70;100.00;160392.97;5069169;28;20025;-63
2023/03/28 02:42:25;;;;;;;15.85;7.13;;;;;;;-0.68;100.00;160398.34;5070106;28;20467;-63
2023/03/28 02:45:14;;;;;;;10.88;4.40;;;;;;;-0.61;100.00;160414.41;5069101;28;20471;-63
2023/03/28 02:47:59;;;;;;;24.08;7.03;;;;;;;-0.59;100.00;160421.09;5070158;28;20483;-64
2023/03/28 02:50:52;;;;;;;9.48;5.15;;;;;;;-0.55;100.00;160431.81;5067687;28;20515;-62
2023/03/28 02:53:25;;;;;;;16.48;6.95;;;;;;;-0.49;100.00;160446.56;5070572;28;20035;-62
2023/03/28 02:56:30;;;;;;;16.85;6.30;;;;;;;-0.50;100.00;160443.91;5068638;28;20059;-62
2023/03/28 02:59:02;;;;;;;20.15;6.43;;;;;;;-0.56;100.00;160427.81;5070389;28;20038;-63
2023/03/28 03:01:28;;;;;;;13.93;7.82;;;;;;;-0.69;100.00;160395.66;5069054;28;20102;-63
2023/03/28 03:03:54;;;;;;;13.60;4.53;;;;;;;-0.75;100.00;160379.59;5069906;28;20020;-63
2023/03/28 03:06:20;;;;;;;19.23;6.63;;;;;;;-0.94;100.00;160330.03;5069085;28;20052;-63
2023/03/28 03:08:45;;;;;;;10.07;6.32;;;;;;;-0.98;100.00;160320.66;5070079;28;20126;-62
2023/03/28 03:11:11;;;;;;;14.05;6.43;;;;;;;-1.05;100.00;160301.91;5067088;28;20037;-63
2023/03/28 03:13:36;;;;;;;12.15;6.53;;;;;;;-1.11;100.00;160285.84;5070420;28;20056;-63
2023/03/28 03:16:02;;;;;;;15.60;6.18;;;;;;;-1.15;100.00;160275.09;5068761;28;20759;-62
2023/03/28 03:18:28;;;;;;;10.25;5.13;;;;;;;-1.18;100.00;160267.09;5069846;28;20056;-62
2023/03/28 03:20:53;;;;;;;14.00;6.93;;;;;;;-1.34;100.00;160225.63;5068672;28;20461;-63
2023/03/28 03:23:19;;;;;;;11.32;5.05;;;;;;;-1.26;100.00;160245.69;5070391;28;20020;-63
2023/03/28 03:25:45;;;;;;;13.57;6.68;;;;;;;-1.25;100.00;160248.38;5068286;28;20576;-63
2023/03/28 03:28:11;;;;;;;13.75;4.55;;;;;;;-1.29;100.00;160240.31;5069985;28;20479;-64
2023/03/28 03:30:37;;;;;;;22.42;7.18;;;;;;;-1.31;100.00;160235.00;5068656;28;20052;-64
2023/03/28 03:33:04;;;;;;;12.20;6.68;;;;;;;-1.35;100.00;160224.25;5069308;28;20036;-64
2023/03/28 03:35:32;;;;;;;9.05;5.28;;;;;;;-1.41;100.00;160206.81;5048841;28;20098;-64
2023/03/28 03:37:58;;;;;;;12.60;6.28;;;;;;;-1.47;100.00;160192.13;5052300;28;20021;-64
2023/03/28 03:40:23;;;;;;;11.30;5.30;;;;;;;-1.54;100.00;160173.41;5068361;28;20455;-64
2023/03/28 03:42:49;;;;;;;13.75;5.90;;;;;;;-1.60;100.00;160158.66;5073484;28;20028;-64
2023/03/28 03:45:14;;;;;;;17.42;5.82;;;;;;;-1.61;100.00;160157.34;5072508;28;20109;-65
2023/03/28 03:47:39;;;;;;;10.48;4.97;;;;;;;-1.67;100.00;160141.25;5073266;28;20025;-65
2023/03/28 03:50:06;;;;;;;16.45;6.97;;;;;;;-1.72;100.00;160126.56;5069626;28;20530;-61
2023/03/28 03:52:32;;;;;;;14.10;5.75;;;;;;;-1.75;100.00;160119.88;5073714;28;20561;-62
2023/03/28 03:54:57;;;;;;;10.32;5.72;;;;;;;-1.89;100.00;160082.34;5071089;28;20094;-62
2023/03/28 03:57:23;;;;;;;12.75;7.57;;;;;;;-1.78;100.00;160111.81;5073373;28;20086;-61
2023/03/28 03:59:48;;;;;;;7.57;6.07;;;;;;;-1.72;100.00;160127.88;5071731;28;20074;-61
2023/03/28 04:02:13;;;;;;;13.07;7.25;;;;;;;-1.67;100.00;160139.94;5073078;28;20024;-61
2023/03/28 04:04:44;;;;;;;14.85;8.55;;;;;;;-1.76;100.00;160117.19;5071969;28;20037;-62
2023/03/28 04:07:12;;;;;;;18.38;9.30;;;;;;;-1.67;100.00;160141.25;5073293;28;20016;-62
2023/03/28 04:09:37;;;;;;;18.23;8.97;;;;;;;-1.73;100.00;160125.19;5071574;28;20043;-62
2023/03/28 04:12:04;;;;;;;11.55;5.95;;;;;;;-1.73;100.00;160123.88;5072818;28;20056;-62
2023/03/28 04:14:30;;;;;;;21.67;7.80;;;;;;;-1.70;100.00;160133.25;5071305;28;20127;-61
2023/03/28 04:16:56;;;;;;;13.95;6.90;;;;;;;-1.70;100.00;160133.25;5072505;28;20024;-62
2023/03/28 04:19:23;;;;;;;15.75;8.00;;;;;;;-1.70;100.00;160133.25;5071593;28;20048;-61
2023/03/28 04:21:51;;;;;;;16.20;7.00;;;;;;;-1.67;100.00;160141.25;5072816;28;20020;-62
2023/03/28 04:24:19;;;;;;;10.10;5.85;;;;;;;-1.68;100.00;160137.25;5071198;28;20017;-62
2023/03/28 04:26:48;;;;;;;19.42;9.50;;;;;;;-1.63;100.00;160151.97;5072799;28;20021;-62
2023/03/28 04:29:15;;;;;;;26.23;9.90;;;;;;;-1.62;100.00;160154.66;5071534;28;20024;-62
2023/03/28 04:31:48;;;;;;;27.85;9.63;;;;;;;-1.58;100.00;160162.66;5067192;28;20024;-59
2023/03/28 04:34:18;;;;;;;17.88;7.93;;;;;;;-1.61;100.00;160155.97;5054159;28;20064;-59
2023/03/28 04:36:45;;;;;;;16.77;7.82;;;;;;;-1.54;100.00;160173.41;5052650;28;20071;-60
2023/03/28 04:39:12;;;;;;;17.05;8.43;;;;;;;-1.58;100.00;160162.66;5051073;28;20051;-60
2023/03/28 04:41:37;;;;;;;11.50;7.38;;;;;;;-1.63;100.00;160151.97;5052803;28;20039;-59
2023/03/28 04:44:03;;;;;;;20.05;9.20;;;;;;;-1.62;100.00;160154.66;5052602;28;20017;-59
2023/03/28 04:46:29;;;;;;;14.15;7.88;;;;;;;-1.66;100.00;160143.94;5051298;28;20044;-59
2023/03/28 04:48:54;;;;;;;20.15;9.18;;;;;;;-1.67;100.00;160141.25;5051430;28;20029;-60
2023/03/28 04:51:20;;;;;;;13.60;7.95;;;;;;;-1.69;100.00;160135.94;5051162;28;20519;-60
2023/03/28 04:53:45;;;;;;;31.80;13.18;;;;;;;-1.72;100.00;160127.88;5065758;28;20120;-60
2023/03/28 04:56:12;;;;;;;16.63;7.65;;;;;;;-1.69;100.00;160135.94;5071172;28;20106;-60
2023/03/28 04:58:38;;;;;;;18.10;8.57;;;;;;;-1.78;100.00;160111.81;5072584;28;20025;-60
2023/03/28 05:01:04;;;;;;;10.30;8.48;;;;;;;-1.73;100.00;160125.19;5067404;28;20706;-60
2023/03/28 05:03:29;;;;;;;13.13;8.30;;;;;;;-1.76;100.00;160118.50;5060381;28;20020;-60
2023/03/28 05:05:55;;;;;;;18.70;9.18;;;;;;;-1.75;100.00;160119.88;5057148;28;20041;-60
2023/03/28 05:08:23;;;;;;;11.98;8.10;;;;;;;-1.76;100.00;160117.19;5059350;28;20024;-60
2023/03/28 05:10:49;;;;;;;15.20;8.25;;;;;;;-1.77;100.00;160114.50;5058528;28;20037;-60
2023/03/28 05:13:15;;;;;;;17.90;8.05;;;;;;;-1.78;100.00;160111.81;5064573;28;20052;-61
2023/03/28 05:15:41;;;;;;;19.63;10.50;;;;;;;-1.82;100.00;160102.47;5064529;28;20041;-60
2023/03/28 05:18:07;;;;;;;23.70;9.18;;;;;;;-1.86;100.00;160090.41;5061450;28;20499;-60
2023/03/28 05:20:32;;;;;;;14.98;7.90;;;;;;;-1.91;100.00;160078.34;5057941;28;20041;-60
2023/03/28 05:22:58;;;;;;;14.45;7.57;;;;;;;-2.02;100.00;160050.25;5058135;28;20482;-60
2023/03/28 05:25:24;;;;;;;15.43;9.82;;;;;;;-2.07;100.00;160038.22;5057626;28;20037;-60
2023/03/28 05:27:50;;;;;;;12.52;8.27;;;;;;;-2.10;100.00;160028.84;5058984;28;20086;-60
2023/03/28 05:30:16;;;;;;;19.00;9.25;;;;;;;-2.17;100.00;160011.47;5059860;28;20071;-60
2023/03/28 05:32:42;;;;;;;11.88;9.20;;;;;;;-2.18;100.00;160008.78;5060678;28;20024;-60
2023/03/28 05:35:10;;;;;;;11.20;7.32;;;;;;;-2.19;100.00;160006.13;5066744;28;20534;-60
2023/03/28 05:37:38;;;;;;;15.90;8.70;;;;;;;-2.18;100.00;160007.44;5071507;28;20028;-60
2023/03/28 05:40:06;;;;;;;14.13;9.00;;;;;;;-2.16;100.00;160012.81;5069680;28;20036;-60
2023/03/28 05:42:32;;;;;;;28.73;11.13;;;;;;;-2.13;100.00;160020.84;5071621;28;20081;-59
2023/03/28 05:44:58;;;;;;;15.35;10.50;;;;;;;-2.15;100.00;160015.47;5068823;28;20040;-60
2023/03/28 05:47:23;;;;;;;15.95;9.40;;;;;;;-2.07;100.00;160036.91;5070980;28;20457;-60
2023/03/28 05:49:49;;;;;;;27.55;12.25;;;;;;;-2.06;100.00;160039.56;5069661;28;20063;-60
2023/03/28 05:52:14;;;;;;;14.88;7.93;;;;;;;-2.08;100.00;160034.22;5071419;28;20066;-60
2023/03/28 05:54:39;;;;;;;16.45;9.07;;;;;;;-2.09;100.00;160031.53;5069282;28;20047;-60
2023/03/28 05:57:05;;;;;;;18.75;10.60;;;;;;;-2.04;100.00;160044.88;5070961;28;20024;-60
2023/03/28 05:59:31;;;;;;;15.05;9.48;;;;;;;-2.05;100.00;160042.25;5069727;28;20377;-59
2023/03/28 06:01:57;;;;;;;18.17;9.07;;;;;;;-2.07;100.00;160036.91;5069395;28;20105;-60
2023/03/28 06:04:24;;;;;;;21.70;9.38;;;;;;;-2.09;100.00;160031.53;5069572;28;20021;-59
2023/03/28 06:06:50;;;;;;;21.90;9.30;;;;;;;-2.01;100.00;160052.94;5070971;28;20012;-60
2023/03/28 06:09:17;;;;;;;26.17;11.45;;;;;;;-1.99;100.00;160056.94;5069157;28;20021;-60
2023/03/28 06:11:43;;;;;;;28.85;12.02;;;;;;;-1.96;100.00;160066.31;5070856;28;20021;-60
2023/03/28 06:14:09;;;;;;;23.40;13.02;;;;;;;-1.86;100.00;160091.72;5071047;28;20044;-60
2023/03/28 06:16:35;;;;;;;18.65;11.95;;;;;;;-1.78;100.00;160111.81;5069411;28;20063;-60
2023/03/28 06:19:00;;;;;;;23.23;12.60;;;;;;;-1.87;100.00;160087.72;5070551;28;20503;-60
2023/03/28 06:21:26;;;;;;;18.85;11.00;;;;;;;-1.73;100.00;160125.19;5069601;28;20032;-59
2023/03/28 06:23:51;;;;;;;18.67;11.70;;;;;;;-1.68;100.00;160138.59;5070373;28;20017;-60
2023/03/28 06:26:17;;;;;;;27.50;13.25;;;;;;;-1.53;100.00;160176.09;5069132;28;20043;-60
2023/03/28 06:28:43;;;;;;;20.17;14.00;;;;;;;-1.43;100.00;160202.81;5070465;28;20102;-59
2023/03/28 06:31:12;;;;;;;22.02;15.57;;;;;;;-1.37;100.00;160218.88;5068990;28;20040;-60
2023/03/28 06:33:40;;;;;;;16.80;12.60;;;;;;;-1.18;100.00;160267.09;5070514;28;20498;-60
2023/03/28 06:36:06;;;;;;;22.97;12.67;;;;;;;-1.08;100.00;160293.84;5068033;28;20388;-59
2023/03/28 06:38:33;;;;;;;29.17;16.42;;;;;;;-0.91;100.00;160336.72;5066114;28;20052;-60
2023/03/28 06:40:58;;;;;;;23.40;14.60;;;;;;;-0.79;100.00;160368.88;5068077;28;20069;-60
2023/03/28 06:43:24;;;;;;;22.13;14.70;;;;;;;-0.63;100.00;160409.06;5070206;28;20422;-60
2023/03/28 06:45:49;;;;;;;29.25;17.73;;;;;;;-0.45;100.00;160457.28;5068692;28;20434;-60
2023/03/28 06:48:15;;;;;;;28.95;15.10;;;;;;;-0.28;100.00;160500.16;5070440;28;20031;-60
2023/03/28 06:50:48;;;;;;;21.85;15.93;;;;;;;-0.10;100.00;160547.03;5069131;28;20036;-60
2023/03/28 06:53:14;;;;;;;23.75;15.45;;;;;;;0.11;100.00;160602.00;5069750;28;20103;-60
2023/03/28 06:55:40;;;;;;;29.55;13.43;;;;;;;0.25;100.00;160639.53;5069237;28;20036;-60
2023/03/28 06:58:05;;;;;;;28.50;14.57;;;;;;;0.42;100.00;160683.75;5070306;28;20089;-60
2023/03/28 07:00:31;;;;;;;24.65;15.75;;;;;;;0.62;100.00;160736.06;5068731;28;20044;-60
2023/03/28 07:02:56;;;;;;;19.92;12.30;;;;;;;0.77;100.00;160773.59;5070219;28;20596;-60
2023/03/28 07:05:22;;;;;;;17.17;11.52;;;;;;;0.94;100.00;160819.16;5067858;28;20037;-60
2023/03/28 07:07:48;;;;;;;18.63;11.93;;;;;;;1.17;100.00;160878.16;5069822;28;20070;-59
2023/03/28 07:10:13;;;;;;;23.75;10.13;;;;;;;1.38;100.00;160931.78;5069138;28;20064;-60
2023/03/28 07:12:39;;;;;;;23.50;11.55;;;;;;;1.52;100.00;160969.41;5072531;28;20025;-60
2023/03/28 07:15:05;;;;;;;38.70;12.40;;;;;;;1.72;100.00;161020.38;5072296;28;20496;-60
2023/03/28 07:17:30;;;;;;;13.85;10.25;;;;;;;1.81;100.00;161044.53;5074358;28;20028;-60
2023/03/28 07:19:56;;;;;;;21.33;12.07;;;;;;;1.93;100.00;161075.41;5072447;28;20074;-60
2023/03/28 07:22:21;;;;;;;18.88;10.93;;;;;;;2.16;100.00;161135.78;5073901;28;20023;-60
2023/03/28 07:24:47;;;;;;;10.73;7.35;;;;;;;2.46;100.00;161213.63;5072587;28;20380;-60
2023/03/28 07:27:12;;;;;;;15.05;9.95;;;;;;;2.69;100.00;161274.03;5074245;28;20028;-59
2023/03/28 07:29:37;;;;;;;12.35;7.93;;;;;;;2.48;100.00;161219.03;5072185;28;20521;-60
2023/03/28 07:32:03;;;;;;;11.95;9.48;;;;;;;2.52;100.00;161228.41;5073713;28;20074;-60
2023/03/28 07:34:29;;;;;;;17.10;8.48;;;;;;;2.54;100.00;161235.13;5072705;28;20053;-60
2023/03/28 07:36:54;;;;;;;19.13;8.00;;;;;;;2.70;100.00;161275.41;5073363;28;20023;-60
2023/03/28 07:39:20;;;;;;;12.70;7.53;;;;;;;3.36;100.00;161447.31;5072646;28;20098;-60
2023/03/28 07:41:45;;;;;;;9.40;8.43;;;;;;;4.06;100.00;161630.00;5073534;28;20430;-60
2023/03/28 07:44:11;;;;;;;8.40;6.15;;;;;;;5.10;100.00;161898.94;5071996;28;20016;-60
2023/03/28 07:46:36;;;;;;;11.88;5.85;;;;;;;6.44;100.00;162248.84;5073825;28;20032;-60
2023/03/28 07:49:03;;;;;;;9.50;5.55;;;;;;;7.26;100.00;162462.91;5070225;28;20033;-59
2023/03/28 07:51:28;;;;;;;5.78;4.25;;;;;;;8.73;100.00;162847.03;5056118;28;20049;-60
2023/03/28 07:53:54;;;;;;;16.23;6.47;;;;;;;9.25;100.00;162981.84;5053531;28;20062;-60
2023/03/28 07:56:19;;;;;;;8.82;5.47;;;;;;;9.64;100.00;163084.38;5052264;28;20033;-60
2023/03/28 07:58:45;;;;;;;11.98;6.07;;;;;;;10.44;100.00;163294.91;5053133;28;20048;-60
2023/03/28 08:01:11;;;;;;;7.22;4.30;;;;;;;10.88;100.00;163409.63;5052105;28;20102;-60
2023/03/28 08:03:37;;;;;;;12.77;4.00;;;;;;;10.83;100.00;163394.81;5053599;28;20082;-60
2023/03/28 08:06:05;;;;;;;13.52;5.63;;;;;;;10.58;100.00;163330.00;5051477;28;20064;-58
2023/03/28 08:08:31;;;;;;;15.65;5.88;;;;;;;9.80;100.00;163127.50;5053519;28;20035;-58
2023/03/28 08:10:57;;;;;;;7.55;4.85;;;;;;;10.29;100.00;163254.38;5051792;28;20063;-58
2023/03/28 08:13:23;;;;;;;9.07;3.55;;;;;;;10.81;100.00;163389.41;5057996;28;20036;-57
2023/03/28 08:15:50;;;;;;;14.50;4.97;;;;;;;10.45;100.00;163297.63;5051688;28;20051;-57
2023/03/28 08:18:19;;;;;;;7.40;4.03;;;;;;;9.63;100.00;163081.69;5053161;28;20025;-58
2023/03/28 08:20:48;;;;;;;14.75;4.25;;;;;;;9.36;100.00;163011.50;5051239;28;20053;-58
2023/03/28 08:23:15;;;;;;;5.07;3.67;;;;;;;8.91;100.00;162894.22;5052929;28;20044;-58
2023/03/28 08:25:41;;;;;;;5.28;3.15;;;;;;;9.81;100.00;163130.22;5051469;28;20413;-58
2023/03/28 08:28:06;;;;;;;6.38;3.35;;;;;;;9.29;100.00;162994.00;5052599;28;20024;-58
2023/03/28 08:30:32;;;;;;;7.65;4.05;;;;;;;9.01;100.00;162919.81;5051194;28;20041;-58
2023/03/28 08:32:57;;;;;;;8.75;3.78;;;;;;;8.00;100.00;162655.59;5052740;28;20020;-58
2023/03/28 08:35:23;;;;;;;8.18;4.85;;;;;;;7.77;100.00;162596.28;5051414;28;20052;-58
2023/03/28 08:37:50;;;;;;;13.02;3.78;;;;;;;8.01;100.00;162658.22;5052323;28;20028;-58
2023/03/28 08:40:19;;;;;;;11.55;4.22;;;;;;;7.50;100.00;162526.19;5051471;28;20507;-60
2023/03/28 08:42:56;;;;;;;6.07;3.92;;;;;;;7.99;100.00;162652.88;5068632;28;20025;-60
2023/03/28 08:45:30;;;;;;;8.82;3.88;;;;;;;8.18;100.00;162704.06;5071013;28;20041;-57
2023/03/28 08:48:05;;;;;;;9.52;4.20;;;;;;;8.85;100.00;162878.03;5072442;28;20100;-58
2023/03/28 08:50:33;;;;;;;9.10;4.03;;;;;;;8.17;100.00;162701.38;5070760;28;20044;-57
2023/03/28 08:53:00;;;;;;;9.02;3.92;;;;;;;7.34;100.00;162483.09;5072409;28;20021;-57
2023/03/28 08:55:35;;;;;;;9.05;4.30;;;;;;;7.19;100.00;162445.38;5071267;28;20119;-57
2023/03/28 08:58:02;;;;;;;8.88;4.50;;;;;;;7.40;100.00;162499.28;5071837;28;20028;-58
2023/03/28 09:00:33;;;;;;;8.38;3.72;;;;;;;7.47;100.00;162518.16;5071110;28;20036;-57
2023/03/28 09:02:59;;;;;;;8.75;3.80;;;;;;;8.12;100.00;162687.91;5072065;28;20097;-60
2023/03/28 09:05:46;;;;;;;8.52;4.00;;;;;;;7.54;100.00;162535.63;5069306;28;20493;-58
2023/03/28 09:08:31;;;;;;;5.67;3.80;;;;;;;7.34;100.00;162483.09;5072402;28;20020;-58
2023/03/28 09:11:20;;;;;;;9.15;4.97;;;;;;;7.29;100.00;162472.34;5070678;28;20040;-58
2023/03/28 09:14:10;;;;;;;5.07;2.92;;;;;;;7.23;100.00;162456.19;5071564;28;20078;-58
2023/03/28 09:17:20;;;;;;;15.30;4.30;;;;;;;7.48;100.00;162520.84;5070728;28;20127;-59
2023/03/28 09:20:10;;;;;;;14.15;2.92;;;;;;;8.36;100.00;162749.91;5068931;28;20127;-60
2023/03/28 09:22:52;;;;;;;7.07;4.20;;;;;;;8.28;100.00;162729.66;5072140;28;20084;-59
2023/03/28 09:25:28;;;;;;;3.63;3.33;;;;;;;8.09;100.00;162679.81;5070502;28;20079;-59
2023/03/28 09:28:11;;;;;;;7.57;3.28;;;;;;;7.68;100.00;162572.03;5071204;28;20020;-60
2023/03/28 09:30:41;;;;;;;12.65;3.28;;;;;;;7.73;100.00;162585.47;5070376;28;20078;-59
2023/03/28 09:33:14;;;;;;;3.67;2.60;;;;;;;8.12;100.00;162686.59;5071671;28;20024;-59
2023/03/28 09:35:41;;;;;;;5.35;2.90;;;;;;;8.44;100.00;162770.13;5069791;28;20036;-60
2023/03/28 09:38:21;;;;;;;7.07;2.85;;;;;;;8.44;100.00;162771.50;5071603;28;20055;-59
2023/03/28 09:40:48;;;;;;;8.63;4.38;;;;;;;8.72;100.00;162844.31;5070017;28;20436;-60
2023/03/28 09:43:33;;;;;;;9.02;4.75;;;;;;;8.83;100.00;162873.94;5051342;28;20055;-59
2023/03/28 09:46:02;;;;;;;17.85;4.50;;;;;;;8.84;100.00;162876.66;5034978;28;20042;-59
2023/03/28 09:48:32;;;;;;;4.32;2.22;;;;;;;8.84;100.00;162876.66;5031539;28;20174;-59
2023/03/28 09:50:59;;;;;;;6.95;4.00;;;;;;;8.52;100.00;162793.09;5029606;28;20041;-59
2023/03/28 09:53:27;;;;;;;11.05;3.45;;;;;;;8.40;100.00;162762.06;5031472;28;20052;-60
2023/03/28 09:55:56;;;;;;;5.30;3.17;;;;;;;8.11;100.00;162685.19;5029864;28;20041;-60
2023/03/28 09:58:21;;;;;;;;;;;;;;;8.50;100.00;162787.72;5031817;28;20488;-59
2023/03/28 10:00:52;;;;;;;7.15;2.95;;;;;;;9.27;100.00;162988.59;5029805;28;19917;-59
2023/03/28 10:03:33;;;;;;;18.48;5.05;;;;;;;9.09;100.00;162941.41;5031397;28;20029;-60
2023/03/28 10:06:15;;;;;;;14.48;3.10;;;;;;;8.55;100.00;162801.16;5029444;28;20048;-59
2023/03/28 10:08:41;;;;;;;10.68;3.67;;;;;;;8.44;100.00;162771.50;5048433;28;20071;-59
2023/03/28 10:11:14;;;;;;;4.65;2.40;;;;;;;8.70;100.00;162840.28;5047418;28;20499;-59
2023/03/28 10:13:42;;;;;;;5.07;2.95;;;;;;;8.35;100.00;162747.22;5050097;28;20031;-59
2023/03/28 10:16:10;;;;;;;7.37;3.80;;;;;;;8.12;100.00;162687.91;5049392;28;20044;-59
2023/03/28 10:18:38;;;;;;;4.97;2.90;;;;;;;8.13;100.00;162690.63;5049213;28;20451;-59
2023/03/28 10:21:10;;;;;;;11.70;4.73;;;;;;;8.07;100.00;162674.44;5048050;28;20484;-59
2023/03/28 10:23:39;;;;;;;5.63;3.55;;;;;;;7.81;100.00;162605.72;5048847;28;20353;-59
2023/03/28 10:26:04;;;;;;;;;;;;;;;7.71;100.00;162580.09;5048315;28;20039;-59
2023/03/28 10:28:33;;;;;;;7.88;2.65;;;;;;;7.33;100.00;162480.44;5049489;28;20007;-60
2023/03/28 10:31:00;;;;;;;12.38;5.45;;;;;;;7.33;100.00;162481.75;5048110;28;20044;-59
2023/03/28 10:33:33;;;;;;;9.93;4.68;;;;;;;7.16;100.00;162437.31;5048271;28;20029;-59
2023/03/28 10:36:08;;;;;;;8.52;3.35;;;;;;;7.19;100.00;162445.38;5063008;28;20032;-59
2023/03/28 10:38:43;;;;;;;6.25;4.43;;;;;;;7.13;100.00;162430.59;5069354;28;20537;-59
2023/03/28 10:41:11;;;;;;;9.48;3.53;;;;;;;7.25;100.00;162461.59;5068191;28;20051;-59
2023/03/28 10:43:40;;;;;;;9.00;3.30;;;;;;;7.41;100.00;162502.00;5069219;28;20066;-59
2023/03/28 10:46:28;;;;;;;10.77;4.53;;;;;;;7.42;100.00;162504.66;5068212;28;20658;-59
2023/03/28 10:49:01;;;;;;;4.95;2.22;;;;;;;7.12;100.00;162426.53;5069755;28;20036;-59
2023/03/28 10:51:30;;;;;;;7.00;3.22;;;;;;;7.32;100.00;162477.75;5052707;28;20044;-59
2023/03/28 10:54:33;;;;;;;7.93;3.55;;;;;;;7.45;100.00;162512.75;5049939;28;20028;-59
2023/03/28 10:57:24;;;;;;;11.95;4.57;;;;;;;8.26;100.00;162724.31;5028473;28;20507;-59
2023/03/28 11:00:04;;;;;;;6.32;2.58;;;;;;;8.43;100.00;162768.78;5034085;28;20033;-59
2023/03/28 11:02:59;;;;;;;2.85;2.50;;;;;;;8.73;100.00;162847.03;5050320;28;20083;-59
2023/03/28 11:05:40;;;;;;;6.90;3.63;;;;;;;8.89;100.00;162890.19;5048169;28;20139;-59
2023/03/28 11:08:43;;;;;;;6.60;3.28;;;;;;;9.29;100.00;162992.63;5049713;28;20032;-59
2023/03/28 11:11:43;;;;;;;6.82;3.03;;;;;;;9.04;100.00;162927.94;5048104;28;20124;-59
2023/03/28 11:14:18;;;;;;;6.22;2.97;;;;;;;8.70;100.00;162840.28;5050062;28;20036;-58
2023/03/28 11:17:03;;;;;;;5.53;3.10;;;;;;;8.35;100.00;162748.53;5028529;28;20065;-58
2023/03/28 11:19:42;;;;;;;6.93;3.90;;;;;;;8.29;100.00;162731.03;5030409;28;20520;-59
2023/03/28 11:22:23;;;;;;;5.45;3.55;;;;;;;8.45;100.00;162772.81;5049860;28;20040;-58
2023/03/28 11:24:54;;;;;;;6.28;3.55;;;;;;;8.11;100.00;162685.19;5046718;28;20048;-58
2023/03/28 11:27:32;;;;;;;6.30;3.22;;;;;;;7.89;100.00;162628.63;5055327;28;20033;-58
2023/03/28 11:30:33;;;;;;;7.90;3.92;;;;;;;7.67;100.00;162569.31;5065578;28;20074;-58